Time;durP1;ratioP1;P1;durP2;ratioP2;P2;SDS_P1;SDS_P2;PMS_P1;PMS_P2;Temp;Humidity;BMP_temperature;BMP_pressure;BME280_temperature;BME280_humidity;BME280_pressure;Samples;Min_cycle;Max_cycle;Signal;HPM_P1;HPM_P2
2023/08/26 00:00:48;;;;;;;6.18;1.60;;;15.40;99.90;;;;;;5053452;28;20033;-54
2023/08/26 00:03:15;;;;;;;5.25;1.45;;;15.40;99.90;;;;;;5051814;28;20045;-55
2023/08/26 00:05:43;;;;;;;3.13;1.25;;;15.30;99.90;;;;;;5053354;28;20044;-57
2023/08/26 00:08:10;;;;;;;3.70;1.23;;;15.30;99.90;;;;;;5052935;28;20037;-54
2023/08/26 00:10:37;;;;;;;4.20;1.40;;;15.30;99.90;;;;;;5053094;28;20059;-56
2023/08/26 00:13:03;;;;;;;2.50;1.08;;;15.30;99.90;;;;;;5053407;28;20037;-53
2023/08/26 00:15:30;;;;;;;5.30;1.25;;;15.20;99.90;;;;;;5053324;28;20401;-56
2023/08/26 00:17:57;;;;;;;5.47;1.50;;;15.20;99.90;;;;;;5052914;28;20052;-53
2023/08/26 00:20:24;;;;;;;3.03;1.10;;;15.10;99.90;;;;;;5051998;28;20045;-55
2023/08/26 00:22:51;;;;;;;4.10;1.20;;;15.10;99.90;;;;;;5052827;28;20445;-51
2023/08/26 00:25:18;;;;;;;5.45;1.60;;;15.10;99.90;;;;;;5053195;28;20063;-55
2023/08/26 00:27:45;;;;;;;4.07;1.30;;;15.10;99.90;;;;;;5052834;28;20132;-52
2023/08/26 00:30:11;;;;;;;4.38;1.30;;;15.00;99.90;;;;;;5051762;28;20067;-49
2023/08/26 00:32:38;;;;;;;6.05;1.52;;;15.00;99.90;;;;;;5051845;28;20130;-53
2023/08/26 00:35:08;;;;;;;3.80;1.35;;;15.00;99.90;;;;;;5051913;28;20388;-56
2023/08/26 00:37:34;;;;;;;3.17;1.30;;;14.90;99.90;;;;;;5052642;28;20388;-57
2023/08/26 00:40:02;;;;;;;4.35;1.60;;;14.90;99.90;;;;;;5052771;28;20148;-51
2023/08/26 00:42:28;;;;;;;3.70;1.45;;;14.90;99.90;;;;;;5051970;28;20041;-54
2023/08/26 00:44:55;;;;;;;6.22;1.80;;;14.90;99.90;;;;;;5051279;28;20052;-56
2023/08/26 00:47:23;;;;;;;5.65;1.70;;;14.80;99.90;;;;;;5051445;28;20132;-55
2023/08/26 00:49:50;;;;;;;6.53;1.52;;;14.70;99.90;;;;;;5052992;28;20047;-54
2023/08/26 00:52:17;;;;;;;2.83;1.17;;;14.70;99.90;;;;;;5050997;28;20057;-54
2023/08/26 00:54:44;;;;;;;2.40;1.15;;;14.70;99.90;;;;;;5051355;28;20052;-52
2023/08/26 00:57:11;;;;;;;5.22;1.38;;;14.60;99.90;;;;;;5053028;28;20049;-48
2023/08/26 00:59:38;;;;;;;2.80;1.00;;;14.60;99.90;;;;;;5056144;28;20102;-55
2023/08/26 01:02:04;;;;;;;4.38;1.30;;;14.60;99.90;;;;;;5055601;28;20131;-55
2023/08/26 01:04:31;;;;;;;5.38;1.40;;;14.60;99.90;;;;;;5056706;28;20103;-53
2023/08/26 01:06:58;;;;;;;6.93;1.55;;;14.50;99.90;;;;;;5055210;28;20045;-53
2023/08/26 01:09:25;;;;;;;4.50;1.85;;;14.50;99.90;;;;;;5056130;28;20116;-55
2023/08/26 01:11:52;;;;;;;7.82;1.92;;;14.60;99.90;;;;;;5056550;28;20066;-48
2023/08/26 01:14:20;;;;;;;6.32;1.60;;;14.50;99.90;;;;;;5054726;28;20488;-48
2023/08/26 01:16:47;;;;;;;4.07;1.35;;;14.50;99.90;;;;;;5056295;28;20041;-46
2023/08/26 01:19:14;;;;;;;3.47;1.35;;;14.50;99.90;;;;;;5054960;28;20052;-54
2023/08/26 01:21:42;;;;;;;3.70;1.48;;;14.50;99.90;;;;;;5054956;28;20104;-48
2023/08/26 01:24:09;;;;;;;6.05;1.65;;;14.40;99.90;;;;;;5054920;28;20131;-54
2023/08/26 01:26:37;;;;;;;4.00;1.50;;;14.50;99.90;;;;;;5056008;28;20116;-49
2023/08/26 01:29:04;;;;;;;4.95;1.70;;;14.40;99.90;;;;;;5055833;28;20045;-49
2023/08/26 01:31:30;;;;;;;4.57;1.63;;;14.40;99.90;;;;;;5055923;28;20041;-46
2023/08/26 01:33:57;;;;;;;4.05;1.50;;;14.40;99.90;;;;;;5054776;28;20131;-55
2023/08/26 01:36:24;;;;;;;5.78;1.55;;;14.40;99.90;;;;;;5055885;28;20041;-53
2023/08/26 01:38:51;;;;;;;4.05;1.70;;;14.30;99.90;;;;;;5055702;28;20045;-56
2023/08/26 01:41:18;;;;;;;5.22;1.67;;;14.40;99.90;;;;;;5054539;28;20098;-57
2023/08/26 01:43:46;;;;;;;6.80;1.90;;;14.30;99.90;;;;;;5054172;28;20107;-57
2023/08/26 01:46:13;;;;;;;4.65;1.60;;;14.30;99.90;;;;;;5055313;28;20048;-54
2023/08/26 01:48:40;;;;;;;4.30;1.90;;;14.30;99.90;;;;;;5054574;28;20045;-55
2023/08/26 01:51:08;;;;;;;4.75;1.50;;;14.30;99.90;;;;;;5054019;28;20048;-53
2023/08/26 01:53:35;;;;;;;7.65;1.80;;;14.30;99.90;;;;;;5053946;28;20132;-56
2023/08/26 01:56:02;;;;;;;4.40;1.80;;;14.30;99.90;;;;;;5037651;28;20060;-54
2023/08/26 01:58:29;;;;;;;4.57;1.83;;;14.30;99.90;;;;;;5054120;28;20045;-51
2023/08/26 02:00:56;;;;;;;4.03;1.65;;;14.20;99.90;;;;;;5053900;28;20037;-52
2023/08/26 02:03:23;;;;;;;9.00;2.30;;;14.20;99.90;;;;;;5053652;28;20057;-55
2023/08/26 02:05:50;;;;;;;5.93;2.05;;;14.20;99.90;;;;;;5055570;28;20091;-53
2023/08/26 02:08:17;;;;;;;3.90;1.85;;;14.20;99.90;;;;;;5053075;28;20480;-55
2023/08/26 02:10:44;;;;;;;5.70;1.67;;;14.10;99.90;;;;;;5053837;28;20493;-55
2023/08/26 02:13:12;;;;;;;6.25;1.90;;;14.20;99.90;;;;;;5055153;28;20072;-52
2023/08/26 02:15:39;;;;;;;6.65;1.75;;;14.20;99.90;;;;;;5053634;28;20048;-56
2023/08/26 02:18:06;;;;;;;5.55;1.92;;;14.20;99.90;;;;;;5053541;28;20132;-55
2023/08/26 02:20:32;;;;;;;4.03;1.60;;;14.20;99.90;;;;;;5053962;28;20041;-56
2023/08/26 02:22:59;;;;;;;4.95;2.03;;;14.20;99.90;;;;;;5054696;28;20134;-54
2023/08/26 02:25:27;;;;;;;5.20;2.40;;;14.20;99.90;;;;;;5055163;28;20045;-54
2023/08/26 02:27:55;;;;;;;5.70;1.92;;;14.20;99.90;;;;;;5054738;28;20048;-52
2023/08/26 02:30:22;;;;;;;4.60;2.03;;;14.20;99.90;;;;;;5055092;28;20041;-53
2023/08/26 02:32:49;;;;;;;4.38;2.00;;;14.10;99.90;;;;;;5054443;28;20037;-54
2023/08/26 02:35:16;;;;;;;4.13;1.73;;;14.10;99.90;;;;;;5054828;28;20123;-56
2023/08/26 02:37:43;;;;;;;7.70;1.85;;;14.10;99.90;;;;;;5054461;28;20049;-47
2023/08/26 02:40:11;;;;;;;5.03;1.95;;;14.10;99.90;;;;;;5054496;28;20053;-56
2023/08/26 02:42:40;;;;;;;3.63;1.75;;;14.10;99.90;;;;;;5052954;28;20110;-55
2023/08/26 02:45:06;;;;;;;5.55;1.95;;;14.10;99.90;;;;;;5053097;28;20071;-56
2023/08/26 02:47:33;;;;;;;3.83;1.95;;;14.00;99.90;;;;;;5036496;28;20045;-56
2023/08/26 02:50:00;;;;;;;5.50;2.00;;;14.00;99.90;;;;;;5054163;28;20041;-52
2023/08/26 02:52:29;;;;;;;7.32;2.00;;;14.00;99.90;;;;;;5053432;28;20064;-53
2023/08/26 02:54:55;;;;;;;4.63;2.00;;;14.00;99.90;;;;;;5053544;28;20040;-55
2023/08/26 02:57:22;;;;;;;4.80;1.70;;;14.00;99.90;;;;;;5053454;28;20037;-53
2023/08/26 02:59:49;;;;;;;5.78;1.85;;;13.90;99.90;;;;;;5053200;28;20045;-56
2023/08/26 03:02:16;;;;;;;5.75;2.17;;;13.80;99.90;;;;;;5054485;28;20033;-54
2023/08/26 03:04:43;;;;;;;8.48;1.85;;;13.80;99.90;;;;;;5052665;28;20140;-56
2023/08/26 03:07:10;;;;;;;3.10;1.73;;;13.80;99.90;;;;;;5052773;28;20072;-56
2023/08/26 03:09:37;;;;;;;5.68;2.13;;;13.80;99.90;;;;;;5052425;28;20044;-52
2023/08/26 03:12:03;;;;;;;4.57;2.28;;;13.80;99.90;;;;;;5054301;28;20037;-51
2023/08/26 03:14:31;;;;;;;6.20;2.38;;;13.80;99.90;;;;;;5052217;28;20072;-52
2023/08/26 03:16:58;;;;;;;5.00;2.50;;;13.70;99.90;;;;;;5052741;28;20063;-54
2023/08/26 03:19:25;;;;;;;4.85;2.00;;;13.70;99.90;;;;;;5052602;28;20047;-56
2023/08/26 03:21:52;;;;;;;4.63;2.20;;;13.70;99.90;;;;;;5051950;28;20037;-56
2023/08/26 03:24:20;;;;;;;4.45;2.20;;;13.70;99.90;;;;;;5052213;28;20045;-50
2023/08/26 03:26:48;;;;;;;7.45;2.20;;;13.70;99.90;;;;;;5052660;28;20389;-54
2023/08/26 03:29:15;;;;;;;5.15;2.38;;;13.60;99.90;;;;;;5052673;28;20055;-54
2023/08/26 03:31:43;;;;;;;6.00;2.40;;;13.60;99.90;;;;;;5052525;28;20049;-57
2023/08/26 03:34:12;;;;;;;4.78;1.90;;;13.60;99.90;;;;;;5052248;28;20044;-53
2023/08/26 03:36:39;;;;;;;7.20;2.10;;;13.60;99.90;;;;;;5053844;28;20044;-52
2023/08/26 03:39:06;;;;;;;4.95;2.05;;;13.60;99.90;;;;;;5053893;28;20033;-56
2023/08/26 03:41:33;;;;;;;4.65;2.00;;;13.60;99.90;;;;;;5052582;28;20040;-55
2023/08/26 03:44:01;;;;;;;3.38;1.80;;;13.60;99.90;;;;;;5051902;28;20404;-56
2023/08/26 03:46:28;;;;;;;5.70;2.33;;;13.60;99.90;;;;;;5052150;28;20057;-59
2023/08/26 03:48:55;;;;;;;3.20;1.80;;;13.60;99.90;;;;;;5052697;28;20056;-54
2023/08/26 03:51:21;;;;;;;6.85;2.05;;;13.50;99.90;;;;;;5052009;28;20081;-52
2023/08/26 03:53:48;;;;;;;4.63;1.95;;;13.50;99.90;;;;;;5053034;28;20400;-49
2023/08/26 03:56:15;;;;;;;5.32;1.83;;;13.50;99.90;;;;;;5051913;28;20503;-53
2023/08/26 03:58:43;;;;;;;4.63;2.20;;;13.50;99.90;;;;;;5051731;28;20400;-55
2023/08/26 04:01:10;;;;;;;3.85;1.70;;;13.40;99.90;;;;;;5051524;28;20049;-51
2023/08/26 04:03:37;;;;;;;6.50;2.20;;;13.50;99.90;;;;;;5053590;28;20464;-51
2023/08/26 04:06:04;;;;;;;4.70;2.10;;;13.50;99.90;;;;;;5053397;28;20056;-53
2023/08/26 04:08:30;;;;;;;5.57;2.05;;;13.40;99.90;;;;;;5051613;28;20410;-54
2023/08/26 04:10:57;;;;;;;5.85;2.05;;;13.40;99.90;;;;;;5052186;28;20045;-51
2023/08/26 04:13:25;;;;;;;4.72;2.20;;;13.40;99.90;;;;;;5051747;28;20060;-56
2023/08/26 04:15:53;;;;;;;3.83;1.77;;;13.40;99.90;;;;;;5051893;28;20087;-52
2023/08/26 04:18:20;;;;;;;2.55;1.60;;;13.30;99.90;;;;;;5051962;28;20045;-51
2023/08/26 04:20:47;;;;;;;4.22;2.13;;;13.30;99.90;;;;;;5051968;28;20132;-58
2023/08/26 04:23:14;;;;;;;4.90;1.92;;;13.30;99.90;;;;;;5051561;28;20094;-56
2023/08/26 04:25:41;;;;;;;4.45;1.98;;;13.30;99.90;;;;;;5052765;28;20102;-50
2023/08/26 04:28:08;;;;;;;5.57;2.13;;;13.30;99.90;;;;;;5051551;28;20057;-56
2023/08/26 04:30:36;;;;;;;4.78;2.40;;;13.20;99.90;;;;;;5051911;28;20545;-55
2023/08/26 04:33:04;;;;;;;3.92;1.85;;;13.20;99.90;;;;;;5054928;28;20373;-54
2023/08/26 04:35:31;;;;;;;3.40;2.00;;;13.10;99.90;;;;;;5057274;28;20037;-53
2023/08/26 04:37:57;;;;;;;4.80;2.08;;;13.20;99.90;;;;;;5055358;28;20060;-49
2023/08/26 04:40:27;;;;;;;3.92;2.22;;;13.20;99.90;;;;;;5055437;28;20052;-57
2023/08/26 04:42:53;;;;;;;4.68;1.85;;;13.10;99.90;;;;;;5056645;28;20037;-53
2023/08/26 04:45:20;;;;;;;3.78;1.90;;;13.10;99.90;;;;;;5038687;28;20045;-48
2023/08/26 04:47:47;;;;;;;4.32;2.42;;;13.10;99.90;;;;;;5055560;28;20052;-52
2023/08/26 04:50:15;;;;;;;6.50;2.30;;;13.10;99.90;;;;;;5055603;28;20065;-49
2023/08/26 04:52:42;;;;;;;4.43;2.15;;;13.00;99.90;;;;;;5057027;28;20360;-50
2023/08/26 04:55:09;;;;;;;4.05;2.30;;;13.00;99.90;;;;;;5055135;28;20065;-49
2023/08/26 04:57:36;;;;;;;4.55;2.22;;;13.00;99.90;;;;;;5055193;28;20041;-49
2023/08/26 05:00:06;;;;;;;5.72;2.10;;;13.00;99.90;;;;;;5056208;28;20040;-47
2023/08/26 05:02:33;;;;;;;5.60;2.28;;;13.00;99.90;;;;;;5056819;28;20025;-47
2023/08/26 05:04:59;;;;;;;4.68;2.13;;;13.00;99.90;;;;;;5056803;28;20384;-51
2023/08/26 05:07:26;;;;;;;5.43;2.42;;;13.00;99.90;;;;;;5054743;28;20220;-50
2023/08/26 05:09:53;;;;;;;5.15;2.38;;;12.90;99.90;;;;;;5056329;28;20412;-54
2023/08/26 05:12:21;;;;;;;5.90;2.15;;;12.90;99.90;;;;;;5055189;28;20041;-55
2023/08/26 05:14:49;;;;;;;5.78;2.38;;;12.90;99.90;;;;;;5056448;28;20073;-54
2023/08/26 05:17:16;;;;;;;5.40;2.20;;;12.90;99.90;;;;;;5055958;28;20048;-54
2023/08/26 05:19:43;;;;;;;4.80;2.40;;;12.90;99.90;;;;;;5054856;28;20049;-54
2023/08/26 05:22:09;;;;;;;4.10;2.40;;;12.90;99.90;;;;;;5055057;28;20048;-53
2023/08/26 05:24:36;;;;;;;5.65;2.47;;;12.90;99.90;;;;;;5054898;28;20037;-56
2023/08/26 05:27:03;;;;;;;3.67;2.20;;;12.90;99.90;;;;;;5054658;28;20045;-55
2023/08/26 05:29:30;;;;;;;5.22;2.58;;;12.90;99.90;;;;;;5054609;28;20052;-50
2023/08/26 05:31:58;;;;;;;5.40;2.63;;;12.90;99.90;;;;;;5038465;28;20040;-54
2023/08/26 05:34:25;;;;;;;4.90;2.20;;;12.90;99.90;;;;;;5054892;28;20045;-54
2023/08/26 05:36:51;;;;;;;3.17;2.55;;;12.90;99.90;;;;;;5054533;28;20545;-58
2023/08/26 05:39:19;;;;;;;4.25;2.40;;;12.90;99.90;;;;;;5054635;28;20048;-55
2023/08/26 05:41:46;;;;;;;3.35;2.30;;;13.00;99.90;;;;;;5056031;28;20044;-54
2023/08/26 05:44:12;;;;;;;4.13;2.00;;;13.00;99.90;;;;;;5054044;28;20044;-57
2023/08/26 05:46:39;;;;;;;4.82;2.50;;;13.00;99.90;;;;;;5054602;28;20139;-53
2023/08/26 05:49:06;;;;;;;4.30;2.40;;;13.00;99.90;;;;;;5055535;28;20037;-56
2023/08/26 05:51:33;;;;;;;4.72;2.22;;;13.10;99.90;;;;;;5055266;28;20057;-51
2023/08/26 05:54:00;;;;;;;3.92;2.10;;;13.10;99.90;;;;;;5055473;28;20053;-56
2023/08/26 05:56:27;;;;;;;3.95;2.60;;;13.10;99.90;;;;;;5054226;28;20044;-56
2023/08/26 05:58:55;;;;;;;3.83;2.65;;;13.10;99.90;;;;;;5054017;28;20041;-54
2023/08/26 06:01:22;;;;;;;4.00;2.25;;;13.10;99.90;;;;;;5054082;28;20506;-53
2023/08/26 06:03:49;;;;;;;4.00;2.88;;;13.20;99.90;;;;;;5053987;28;20049;-55
2023/08/26 06:06:15;;;;;;;3.17;2.53;;;13.20;99.90;;;;;;5054227;28;20045;-54
2023/08/26 06:08:42;;;;;;;6.60;2.63;;;13.20;99.90;;;;;;5054214;28;20056;-54
2023/08/26 06:11:09;;;;;;;5.25;2.60;;;13.20;99.90;;;;;;5055659;28;20048;-53
2023/08/26 06:13:36;;;;;;;4.82;2.78;;;13.30;99.90;;;;;;5054389;28;20111;-51
2023/08/26 06:16:03;;;;;;;3.00;2.50;;;13.30;99.90;;;;;;5053907;28;20051;-53
2023/08/26 06:18:30;;;;;;;5.15;2.45;;;13.30;99.90;;;;;;5053551;28;20045;-57
2023/08/26 06:20:57;;;;;;;4.20;2.60;;;13.30;99.90;;;;;;5053738;28;20168;-55
2023/08/26 06:23:24;;;;;;;3.47;2.22;;;13.40;99.90;;;;;;5053988;28;20433;-56
2023/08/26 06:25:51;;;;;;;4.22;2.50;;;13.40;99.90;;;;;;5054808;28;20064;-53
2023/08/26 06:28:18;;;;;;;3.63;2.22;;;13.40;99.90;;;;;;5054017;28;20128;-54
2023/08/26 06:30:46;;;;;;;5.53;2.38;;;13.50;99.90;;;;;;5053363;28;20041;-54
2023/08/26 06:33:12;;;;;;;5.70;2.30;;;13.50;99.90;;;;;;5054750;28;20052;-57
2023/08/26 06:35:39;;;;;;;5.07;2.25;;;13.60;99.90;;;;;;5053708;28;20122;-53
2023/08/26 06:38:06;;;;;;;4.18;2.20;;;13.60;99.90;;;;;;5053735;28;20077;-57
2023/08/26 06:40:34;;;;;;;3.88;2.13;;;13.70;99.90;;;;;;5053391;28;20047;-55
2023/08/26 06:43:04;;;;;;;3.45;2.03;;;13.70;99.90;;;;;;5053304;28;20064;-54
2023/08/26 06:45:34;;;;;;;3.22;1.92;;;13.80;99.90;;;;;;5054530;28;20033;-55
2023/08/26 06:48:04;;;;;;;6.53;2.25;;;13.80;99.90;;;;;;5053254;28;20095;-57
2023/08/26 06:50:34;;;;;;;3.85;2.22;;;13.90;99.90;;;;;;5053859;28;20041;-53
2023/08/26 06:53:01;;;;;;;2.55;1.88;;;14.00;99.90;;;;;;5053840;28;20052;-52
2023/08/26 06:55:28;;;;;;;3.92;2.30;;;14.00;99.90;;;;;;5052713;28;20037;-55
2023/08/26 06:57:55;;;;;;;2.72;1.95;;;14.10;99.90;;;;;;5053731;28;20040;-55
2023/08/26 07:00:22;;;;;;;3.67;2.03;;;14.20;99.90;;;;;;5054005;28;20393;-57
2023/08/26 07:02:49;;;;;;;3.35;2.10;;;14.20;99.90;;;;;;5054102;28;20045;-55
2023/08/26 07:05:15;;;;;;;3.17;2.20;;;14.20;99.90;;;;;;5053983;28;20041;-56
2023/08/26 07:07:42;;;;;;;3.65;2.50;;;14.30;99.90;;;;;;5053424;28;20051;-53
2023/08/26 07:10:09;;;;;;;3.50;2.20;;;14.50;99.90;;;;;;5054111;28;20055;-56
2023/08/26 07:12:36;;;;;;;3.88;2.15;;;14.60;99.90;;;;;;5054155;28;20515;-55
2023/08/26 07:15:03;;;;;;;3.40;2.22;;;14.70;99.90;;;;;;5053517;28;20045;-55
2023/08/26 07:17:30;;;;;;;3.28;1.90;;;14.80;99.90;;;;;;5052525;28;20053;-53
2023/08/26 07:19:57;;;;;;;2.83;1.90;;;15.00;99.90;;;;;;5053216;28;20041;-52
2023/08/26 07:22:23;;;;;;;3.88;2.08;;;15.10;99.90;;;;;;5053858;28;20048;-56
2023/08/26 07:24:55;;;;;;;5.00;2.33;;;15.30;99.90;;;;;;5053846;28;20049;-55
2023/08/26 07:27:23;;;;;;;2.90;2.13;;;15.40;99.90;;;;;;5053464;28;20405;-56
2023/08/26 07:29:50;;;;;;;4.45;2.55;;;15.50;99.90;;;;;;5052065;28;20075;-53
2023/08/26 07:32:16;;;;;;;4.28;2.50;;;15.60;99.90;;;;;;5053049;28;20040;-55
2023/08/26 07:34:43;;;;;;;3.97;2.65;;;15.70;99.90;;;;;;5052126;28;20406;-56
2023/08/26 07:37:11;;;;;;;4.60;2.90;;;15.80;99.90;;;;;;5053325;28;20480;-52
2023/08/26 07:39:38;;;;;;;3.58;2.78;;;15.80;99.90;;;;;;5052643;28;20045;-54
2023/08/26 07:42:05;;;;;;;3.67;2.90;;;15.90;99.90;;;;;;5053082;28;20068;-51
2023/08/26 07:44:32;;;;;;;4.30;2.63;;;15.90;99.90;;;;;;5053299;28;20511;-56
2023/08/26 07:46:58;;;;;;;5.00;3.10;;;16.00;99.90;;;;;;5053020;28;20435;-53
2023/08/26 07:49:25;;;;;;;7.65;4.53;;;16.00;99.90;;;;;;5053113;28;20093;-52
2023/08/26 07:51:52;;;;;;;8.27;5.95;;;16.10;99.90;;;;;;5052750;28;20077;-55
2023/08/26 07:54:19;;;;;;;4.90;3.47;;;16.20;99.90;;;;;;5052852;28;20076;-54
2023/08/26 07:56:46;;;;;;;4.60;2.80;;;16.20;99.90;;;;;;5052586;28;20037;-54
2023/08/26 07:59:13;;;;;;;3.58;2.60;;;16.30;99.90;;;;;;5052886;28;20048;-52
2023/08/26 08:01:39;;;;;;;4.10;2.88;;;16.30;99.90;;;;;;5052666;28;20045;-53
2023/08/26 08:04:06;;;;;;;4.15;3.10;;;16.40;99.90;;;;;;5052256;28;20148;-50
2023/08/26 08:06:33;;;;;;;3.70;2.30;;;16.40;99.90;;;;;;5052761;28;20048;-52
2023/08/26 08:09:00;;;;;;;4.40;2.35;;;16.30;99.90;;;;;;5052210;28;20049;-53
2023/08/26 08:11:27;;;;;;;2.85;2.00;;;16.30;99.90;;;;;;5052508;28;20119;-54
2023/08/26 08:13:54;;;;;;;4.05;2.00;;;16.30;99.90;;;;;;5052571;28;20060;-57
2023/08/26 08:16:20;;;;;;;3.50;2.30;;;16.30;99.90;;;;;;5034841;28;20048;-55
2023/08/26 08:18:47;;;;;;;3.22;1.83;;;16.40;99.90;;;;;;5032361;28;20160;-53
2023/08/26 08:21:14;;;;;;;2.72;1.95;;;16.40;99.90;;;;;;5031264;28;20050;-57
2023/08/26 08:23:43;;;;;;;2.50;1.70;;;16.50;99.90;;;;;;5032724;28;20465;-53
2023/08/26 08:26:10;;;;;;;4.18;2.00;;;16.50;99.90;;;;;;5032496;28;20048;-56
2023/08/26 08:28:37;;;;;;;5.72;1.77;;;16.60;99.90;;;;;;5032710;28;20071;-53
2023/08/26 08:31:04;;;;;;;3.28;1.67;;;16.70;99.90;;;;;;5032548;28;20136;-54
2023/08/26 08:33:33;;;;;;;3.53;1.70;;;16.80;99.90;;;;;;5032286;28;20034;-50
2023/08/26 08:36:00;;;;;;;3.47;1.70;;;16.90;99.90;;;;;;5032326;28;20042;-53
2023/08/26 08:38:27;;;;;;;2.60;1.75;;;17.00;99.90;;;;;;5031453;28;20473;-52
2023/08/26 08:40:54;;;;;;;2.47;1.60;;;17.10;99.90;;;;;;5032257;28;20037;-54
2023/08/26 08:43:21;;;;;;;3.35;1.38;;;17.30;99.90;;;;;;5032301;28;20061;-51
2023/08/26 08:45:48;;;;;;;2.72;1.40;;;17.40;99.90;;;;;;5031875;28;20045;-51
2023/08/26 08:48:15;;;;;;;3.30;1.60;;;17.60;99.90;;;;;;5032185;28;20484;-55
2023/08/26 08:50:42;;;;;;;3.90;1.23;;;17.70;99.90;;;;;;5031225;28;20099;-53
2023/08/26 08:53:09;;;;;;;1.73;0.93;;;17.90;99.90;;;;;;5032619;28;20473;-53
2023/08/26 08:55:36;;;;;;;2.05;1.10;;;18.00;99.90;;;;;;5032411;28;20041;-55
2023/08/26 08:58:03;;;;;;;3.00;1.17;;;18.10;99.90;;;;;;5031395;28;20041;-54
2023/08/26 09:00:29;;;;;;;3.25;1.02;;;18.10;99.90;;;;;;5032228;28;20042;-57
2023/08/26 09:02:56;;;;;;;2.25;0.98;;;18.30;99.90;;;;;;5032348;28;20195;-58
2023/08/26 09:05:23;;;;;;;3.08;1.30;;;18.50;99.90;;;;;;5032118;28;20073;-57
2023/08/26 09:07:50;;;;;;;1.70;0.93;;;18.60;99.90;;;;;;5022590;28;20073;-56
2023/08/26 09:10:17;;;;;;;2.28;1.00;;;18.80;99.90;;;;;;5032216;28;20053;-52
2023/08/26 09:12:44;;;;;;;4.22;1.40;;;19.00;99.90;;;;;;5031265;28;20049;-57
2023/08/26 09:15:11;;;;;;;2.40;1.30;;;19.20;99.90;;;;;;5031996;28;20046;-57
2023/08/26 09:17:38;;;;;;;2.63;1.10;;;19.30;99.90;;;;;;5032024;28;20103;-54
2023/08/26 09:20:06;;;;;;;2.97;1.23;;;19.40;99.90;;;;;;5035027;28;20112;-52
2023/08/26 09:22:33;;;;;;;3.15;1.20;;;19.50;99.90;;;;;;5035452;28;20111;-56
2023/08/26 09:25:00;;;;;;;3.05;1.13;;;19.60;99.90;;;;;;5034355;28;20045;-54
2023/08/26 09:27:27;;;;;;;2.90;0.98;;;19.60;99.90;;;;;;5035467;28;20088;-59
2023/08/26 09:29:54;;;;;;;3.00;0.90;;;19.80;99.90;;;;;;5035321;28;20041;-53
2023/08/26 09:32:21;;;;;;;1.48;0.60;;;19.90;99.90;;;;;;5035391;28;20049;-57
2023/08/26 09:34:47;;;;;;;6.50;0.98;;;20.00;99.70;;;;;;5035486;28;20428;-51
2023/08/26 09:37:14;;;;;;;1.92;0.73;;;20.00;99.90;;;;;;5035600;28;20135;-54
2023/08/26 09:39:41;;;;;;;4.22;0.90;;;20.10;99.60;;;;;;5035206;28;20034;-55
2023/08/26 09:42:08;;;;;;;2.95;0.90;;;20.10;99.40;;;;;;5035198;28;20126;-52
2023/08/26 09:44:35;;;;;;;1.98;0.80;;;20.00;99.60;;;;;;5035003;28;20186;-55
2023/08/26 09:47:01;;;;;;;3.42;0.73;;;19.90;99.70;;;;;;5030178;28;20404;-56
2023/08/26 09:49:28;;;;;;;4.20;0.85;;;19.80;99.90;;;;;;5035328;28;20044;-58
2023/08/26 09:51:55;;;;;;;3.97;1.10;;;19.60;99.90;;;;;;5035071;28;20057;-50
2023/08/26 09:54:22;;;;;;;7.60;1.70;;;19.40;99.90;;;;;;5034900;28;20041;-54
2023/08/26 09:56:49;;;;;;;5.80;1.30;;;19.00;99.90;;;;;;5034856;28;20057;-56
2023/08/26 09:59:16;;;;;;;2.60;1.10;;;18.60;99.90;;;;;;5034854;28;20044;-56
2023/08/26 10:01:42;;;;;;;4.28;1.30;;;18.30;99.90;;;;;;5034872;28;20060;-55
2023/08/26 10:04:09;;;;;;;3.30;1.08;;;18.10;99.90;;;;;;5034997;28;20034;-55
2023/08/26 10:06:36;;;;;;;2.42;0.90;;;18.00;99.90;;;;;;5034687;28;20037;-56
2023/08/26 10:09:05;;;;;;;2.65;1.00;;;17.90;99.90;;;;;;5034886;28;20041;-56
2023/08/26 10:11:32;;;;;;;2.78;1.00;;;17.80;99.90;;;;;;5034662;28;20037;-53
2023/08/26 10:13:58;;;;;;;2.10;0.80;;;17.80;99.90;;;;;;5034671;28;20046;-54
2023/08/26 10:16:25;;;;;;;4.70;1.20;;;17.90;99.90;;;;;;5034587;28;20042;-57
2023/08/26 10:19:03;;;;;;;2.78;1.10;;;17.90;99.90;;;;;;5034864;28;20037;-56
2023/08/26 10:21:30;;;;;;;4.53;1.10;;;17.80;99.90;;;;;;5028286;28;20208;-52
2023/08/26 10:23:57;;;;;;;3.33;1.20;;;17.80;99.90;;;;;;5034415;28;20052;-55
2023/08/26 10:26:24;;;;;;;5.13;1.25;;;17.80;99.90;;;;;;5033548;28;20050;-54
2023/08/26 10:28:50;;;;;;;3.65;1.55;;;17.80;99.90;;;;;;5034394;28;20049;-51
2023/08/26 10:31:17;;;;;;;2.60;1.00;;;17.80;99.90;;;;;;5034157;28;20057;-53
2023/08/26 10:33:44;;;;;;;3.20;1.02;;;17.70;99.90;;;;;;5034188;28;20080;-51
2023/08/26 10:36:11;;;;;;;3.40;0.90;;;17.70;99.90;;;;;;5034558;28;20120;-52
2023/08/26 10:38:39;;;;;;;4.15;1.13;;;17.80;99.90;;;;;;5034208;28;20030;-55
2023/08/26 10:41:05;;;;;;;2.67;1.00;;;17.90;99.90;;;;;;5034339;28;20042;-56
2023/08/26 10:43:32;;;;;;;2.42;0.90;;;17.90;99.90;;;;;;5034300;28;20045;-57
2023/08/26 10:45:59;;;;;;;3.92;1.15;;;18.00;99.90;;;;;;5034179;28;20045;-55
2023/08/26 10:48:26;;;;;;;5.32;1.00;;;17.90;99.90;;;;;;5033447;28;20049;-54
2023/08/26 10:50:53;;;;;;;1.95;0.93;;;18.00;99.90;;;;;;5033866;28;20057;-52
2023/08/26 10:53:19;;;;;;;3.53;1.23;;;18.10;99.90;;;;;;5033253;28;20052;-57
2023/08/26 10:55:53;;;;;;;4.25;1.00;;;18.20;99.90;;;;;;5033724;28;20044;-55
2023/08/26 10:58:20;;;;;;;2.10;0.90;;;18.40;99.90;;;;;;5032352;28;20460;-52
2023/08/26 11:00:47;;;;;;;2.05;1.08;;;18.70;99.90;;;;;;5033932;28;20508;-55
2023/08/26 11:03:13;;;;;;;3.00;1.55;;;18.90;99.90;;;;;;5033727;28;20041;-50
2023/08/26 11:05:41;;;;;;;3.35;0.95;;;19.00;99.90;;;;;;5030535;28;20061;-54
2023/08/26 11:08:08;;;;;;;5.10;1.00;;;19.10;99.90;;;;;;5023670;28;20073;-56
2023/08/26 11:10:34;;;;;;;4.38;1.00;;;19.10;99.90;;;;;;5033326;28;20499;-54
2023/08/26 11:13:01;;;;;;;3.70;0.77;;;19.10;99.90;;;;;;5026321;28;20042;-55
2023/08/26 11:15:28;;;;;;;3.70;1.00;;;19.00;99.90;;;;;;5026776;28;20488;-55
2023/08/26 11:17:55;;;;;;;2.85;0.90;;;18.90;99.90;;;;;;5023342;28;20511;-51
2023/08/26 11:20:22;;;;;;;2.60;1.00;;;18.70;99.90;;;;;;5026666;28;20033;-53
2023/08/26 11:22:49;;;;;;;3.30;1.10;;;18.60;99.90;;;;;;5002727;28;20043;-55
2023/08/26 11:25:15;;;;;;;3.25;0.82;;;18.50;99.90;;;;;;5032476;28;20056;-53
2023/08/26 11:27:42;;;;;;;3.45;1.00;;;18.30;99.90;;;;;;5033321;28;20080;-52
2023/08/26 11:30:09;;;;;;;2.15;1.08;;;18.20;99.90;;;;;;5033150;28;20099;-53
2023/08/26 11:32:36;;;;;;;4.88;1.58;;;18.10;99.90;;;;;;5033177;28;20079;-53
2023/08/26 11:35:03;;;;;;;5.75;1.45;;;18.00;99.90;;;;;;5033161;28;20044;-51
2023/08/26 11:37:30;;;;;;;3.63;1.13;;;18.00;99.90;;;;;;5032920;28;20105;-50
2023/08/26 11:39:57;;;;;;;3.78;1.27;;;17.90;99.90;;;;;;5031928;28;20033;-48
2023/08/26 11:42:24;;;;;;;3.35;1.30;;;17.90;99.90;;;;;;5032496;28;20046;-51
2023/08/26 11:44:50;;;;;;;3.72;1.10;;;17.90;99.90;;;;;;5032909;28;20063;-50
2023/08/26 11:47:17;;;;;;;3.50;1.20;;;17.90;99.90;;;;;;5032810;28;20047;-55
2023/08/26 11:49:44;;;;;;;2.40;1.05;;;17.90;99.90;;;;;;5032773;28;20042;-53
2023/08/26 11:52:11;;;;;;;4.32;1.10;;;17.90;99.90;;;;;;5031560;28;20057;-53
2023/08/26 11:54:37;;;;;;;2.33;1.10;;;17.90;99.90;;;;;;5032714;28;20132;-55
2023/08/26 11:57:04;;;;;;;5.45;1.08;;;18.00;99.90;;;;;;5031531;28;20040;-53
2023/08/26 11:59:31;;;;;;;2.58;0.93;;;18.00;99.90;;;;;;5032913;28;20436;-55
2023/08/26 12:01:58;;;;;;;2.95;0.70;;;18.10;99.90;;;;;;5032998;28;20116;-55
2023/08/26 12:04:25;;;;;;;1.73;0.70;;;18.10;99.90;;;;;;5032757;28;20029;-53
2023/08/26 12:06:52;;;;;;;2.15;0.88;;;18.30;99.90;;;;;;5032698;28;20072;-56
2023/08/26 12:09:19;;;;;;;4.05;1.45;;;18.40;99.90;;;;;;5031812;28;20361;-54
2023/08/26 12:11:46;;;;;;;2.65;1.10;;;18.50;99.90;;;;;;5032574;28;20412;-53
2023/08/26 12:14:13;;;;;;;5.68;1.00;;;18.70;99.90;;;;;;5032713;28;20405;-54
2023/08/26 12:16:39;;;;;;;2.55;1.00;;;19.00;99.90;;;;;;5031168;28;20476;-54
2023/08/26 12:19:06;;;;;;;1.98;0.77;;;19.10;99.90;;;;;;5030897;28;20042;-53
2023/08/26 12:21:33;;;;;;;3.42;1.17;;;19.30;99.90;;;;;;5032540;28;20365;-55
2023/08/26 12:24:00;;;;;;;2.83;1.05;;;19.50;99.90;;;;;;5032899;28;20099;-55
2023/08/26 12:26:27;;;;;;;2.78;0.82;;;19.70;99.90;;;;;;5027134;28;20082;-57
2023/08/26 12:28:54;;;;;;;3.20;0.90;;;19.80;99.90;;;;;;5027815;28;20045;-56
2023/08/26 12:31:21;;;;;;;3.15;0.85;;;19.90;99.90;;;;;;5025847;28;20060;-51
2023/08/26 12:33:48;;;;;;;1.80;0.88;;;20.10;99.90;;;;;;5032601;28;20116;-54
2023/08/26 12:36:25;;;;;;;5.43;0.90;;;20.20;99.90;;;;;;5032841;28;20037;-53
2023/08/26 12:38:52;;;;;;;2.88;0.80;;;20.20;99.90;;;;;;5031174;28;20119;-50
2023/08/26 12:41:19;;;;;;;4.30;0.90;;;20.20;99.90;;;;;;5032443;28;20049;-47
2023/08/26 12:43:46;;;;;;;2.42;0.80;;;20.20;99.90;;;;;;5032109;28;20046;-56
2023/08/26 12:46:13;;;;;;;2.80;0.80;;;20.10;99.90;;;;;;5032309;28;20124;-54